Besiktas Bosphorus — TCOG3 — position and weather

sailwx.info

Track history (hours):
 
Tides and Currents Weather Stations Pressure Air Temp Water Temp Dewpoint Dewpoint Depression Visibility Wind Speed Wind Dir Waves Ship Positions

Besiktas Bosphorus

Last reported at 2014-Aug-30 17:21 UTC. Time now 2014-Aug-30 22:32 UTC.
Position N 44°37' E 037°40'.

Length 274 m; draft 9.3 m.

Type: Tanker. MMSI: 271000817.

Date/timePositionNaut miles runAvg speedWind from/ knotsBaromVisibWave heightAir tempDewpointWater temp
2014-Aug-30 17:21N 44°37' E 037°40'0 0.0
2014-Aug-30 16:31N 44°37' E 037°40'0 0.0
2014-Aug-30 15:34N 44°37' E 037°40'1 1.1
2014-Aug-30 14:33N 44°38' E 037°38'0 0.0
2014-Aug-30 13:33N 44°38' E 037°38'0 0.0
2014-Aug-30 12:29N 44°38' E 037°38'0 0.0
2014-Aug-30 11:32N 44°38' E 037°38'2 1.7
2014-Aug-30 10:33N 44°36' E 037°38'7 6.6
2014-Aug-30 09:34N 44°35' E 037°47'5 4.6
2014-Aug-30 08:31N 44°35' E 037°54'0 0.0
2014-Aug-30 07:31N 44°35' E 037°54'0 0.0
2014-Aug-30 06:31N 44°35' E 037°54'0 0.0
2014-Aug-30 05:28N 44°35' E 037°54'0 0.0
2014-Aug-30 04:31N 44°35' E 037°54'0 0.0
2014-Aug-30 03:31N 44°35' E 037°54'0 0.0
2014-Aug-30 02:31N 44°35' E 037°54'0 0.1
2014-Aug-30 01:31N 44°35' E 037°54'0 0.0
2014-Aug-30 00:31N 44°35' E 037°54'0 0.0
2014-Aug-29 23:31N 44°35' E 037°54'0 0.0
2014-Aug-29 22:28N 44°35' E 037°54'0 0.0
2014-Aug-29 21:31N 44°35' E 037°54'0 0.0
2014-Aug-29 20:32N 44°35' E 037°54'0 0.0
2014-Aug-29 19:32N 44°35' E 037°54'0 0.0
2014-Aug-29 18:32N 44°35' E 037°54'0 0.0
2014-Aug-29 17:32N 44°35' E 037°54'0 0.0
2014-Aug-29 16:32N 44°35' E 037°54'0 0.0
2014-Aug-29 15:32N 44°35' E 037°54'0 0.0
2014-Aug-29 14:34N 44°35' E 037°54'0 0.0
2014-Aug-29 13:31N 44°35' E 037°54'0 0.0
2014-Aug-29 12:31N 44°35' E 037°54'0 0.0
2014-Aug-29 11:33N 44°35' E 037°54'0 0.0
2014-Aug-29 10:33N 44°35' E 037°54'0 0.0
2014-Aug-29 09:33N 44°35' E 037°54'0 0.0
2014-Aug-29 08:34N 44°35' E 037°54'0 0.0
2014-Aug-29 07:32N 44°35' E 037°54'0 0.0
2014-Aug-29 06:32N 44°35' E 037°54'0 0.0
2014-Aug-29 05:32N 44°35' E 037°54'0 0.0
2014-Aug-29 04:32N 44°35' E 037°54'0 0.0
2014-Aug-29 03:32N 44°35' E 037°54'0 0.0
2014-Aug-29 02:32N 44°35' E 037°54'0 0.0
2014-Aug-29 01:32N 44°35' E 037°54'0 0.0
2014-Aug-29 00:31N 44°35' E 037°54'0 0.0
2014-Aug-28 23:31N 44°35' E 037°54'0 0.0
2014-Aug-28 22:31N 44°35' E 037°54'0 0.0
2014-Aug-28 21:33N 44°35' E 037°54'0 0.0
2014-Aug-28 20:31N 44°35' E 037°54'0 0.0
2014-Aug-28 19:31N 44°35' E 037°54'0 0.0
2014-Aug-28 18:31N 44°35' E 037°54'0 0.0
2014-Aug-28 17:29N 44°35' E 037°54'0 0.0
2014-Aug-28 16:33N 44°35' E 037°54'0 0.0
2014-Aug-28 15:33N 44°35' E 037°54'0 0.0
2014-Aug-28 14:33N 44°35' E 037°54'0 0.0
2014-Aug-28 13:31N 44°35' E 037°54'0 0.0
2014-Aug-28 12:31N 44°35' E 037°54'0 0.0
2014-Aug-28 11:33N 44°35' E 037°54'0 0.0
2014-Aug-28 10:33N 44°35' E 037°54'0 0.0
2014-Aug-28 09:32N 44°35' E 037°54'0 0.0
2014-Aug-28 08:32N 44°35' E 037°54'0 0.0
2014-Aug-28 07:32N 44°35' E 037°54'0 0.0
2014-Aug-28 06:32N 44°35' E 037°54'0 0.0
2014-Aug-28 05:32N 44°35' E 037°54'0 0.0
2014-Aug-28 04:33N 44°35' E 037°54'0 0.0
2014-Aug-28 03:33N 44°35' E 037°54'0 0.0
2014-Aug-28 02:30N 44°35' E 037°54'0 0.0
2014-Aug-28 01:33N 44°35' E 037°54'0 0.0
2014-Aug-28 00:32N 44°35' E 037°54'0 0.0
2014-Aug-27 23:31N 44°35' E 037°54'0 0.0
2014-Aug-27 22:33N 44°35' E 037°54'0 0.1
2014-Aug-27 21:33N 44°35' E 037°54'4 4.2
2014-Aug-27 20:33N 44°35' E 037°48'4 3.6
2014-Aug-27 19:33N 44°37' E 037°44'1 0.7
2014-Aug-27 18:33N 44°37' E 037°43'1010.2
2014-Aug-27 17:33N 44°28' E 037°35'8 8.0
2014-Aug-27 16:33N 44°23' E 037°27'8 8.1
2014-Aug-27 15:33N 44°20' E 037°17'8 8.1
2014-Aug-27 14:32N 44°16' E 037°06'9 9.5
2014-Aug-27 13:33N 44°12' E 036°55'1312.7
2014-Aug-27 12:33N 44°06' E 036°39'9 9.1
2014-Aug-27 11:33N 44°02' E 036°27'8 8.3
2014-Aug-27 10:33N 43°59' E 036°17'8 8.2
2014-Aug-27 09:33N 43°56' E 036°06'8 8.3
2014-Aug-27 08:33N 43°52' E 035°56'8 8.3
2014-Aug-27 07:33N 43°49' E 035°46'9 8.3
2014-Aug-27 06:30N 43°45' E 035°35'8 8.4
2014-Aug-27 05:33N 43°42' E 035°24'8 8.4
2014-Aug-27 04:33N 43°39' E 035°14'10 8.2
2014-Aug-27 03:24N 43°35' E 035°02'7 8.1
2014-Aug-27 02:33N 43°32' E 034°53'9 8.2
2014-Aug-27 01:26N 43°28' E 034°42'294 7.7
2014-Aug-25 11:22N 40°60' E 028°60'5 6.0
2014-Aug-25 10:33N 40°55' E 028°57'4 3.9
2014-Aug-25 09:30N 40°56' E 028°52'0 0.1
2014-Aug-25 08:31N 40°56' E 028°52'0 0.0
2014-Aug-25 07:33N 40°56' E 028°52'0 0.0
2014-Aug-25 06:29N 40°56' E 028°52'0 0.0
2014-Aug-25 05:19N 40°56' E 028°52'0 0.0
2014-Aug-25 04:31N 40°56' E 028°52'0 0.0
2014-Aug-25 03:32N 40°56' E 028°52'0 0.1
2014-Aug-25 02:33N 40°56' E 028°52'0 0.0
2014-Aug-25 00:27N 40°56' E 028°52'0 0.1
2014-Aug-24 23:29N 40°56' E 028°52'0 0.0
2014-Aug-24 22:26N 40°56' E 028°52'2 2.0
2014-Aug-24 21:26N 40°54' E 028°52'9 9.9
2014-Aug-24 20:31N 40°51' E 028°41'1312.1
2014-Aug-24 19:29N 40°49' E 028°24'2712.3
2014-Aug-24 17:19N 40°45' E 027°50'912.1
2014-Aug-24 16:33N 40°43' E 027°38'1212.0
2014-Aug-24 15:33N 40°38' E 027°23'2612.0
2014-Aug-24 13:25N 40°28' E 026°52'1511.2
2014-Aug-24 12:04N 40°19' E 026°36'2312.0
2014-Aug-24 10:07N 40°02' E 026°15'5 8.6
2014-Aug-24 09:33N 40°01' E 026°09'9 8.5
2014-Aug-24 08:33N 39°57' E 025°59'8 7.9
2014-Aug-24 07:33N 39°50' E 025°54'5 5.3
2014-Aug-24 06:33N 39°46' E 025°58'0 0.0
2014-Aug-24 05:29N 39°46' E 025°58'0 0.0
2014-Aug-24 04:32N 39°46' E 025°58'0 0.1
2014-Aug-24 03:32N 39°46' E 025°58'0 0.1
2014-Aug-24 02:32N 39°46' E 025°58'0 0.1
2014-Aug-24 01:32N 39°46' E 025°57'0 0.0
2014-Aug-24 00:23N 39°46' E 025°57'0 0.1
2014-Aug-23 23:23N 39°46' E 025°58'0 0.1
2014-Aug-23 22:30N 39°46' E 025°58'0 0.1
2014-Aug-23 21:32N 39°46' E 025°58'129 5.6
2014-Aug-22 22:33N 37°54' E 024°37'9 9.0
2014-Aug-22 21:33N 37°45' E 024°33'9 8.7
2014-Aug-22 20:33N 37°37' E 024°30'18 8.6
2014-Aug-22 18:32N 37°23' E 024°17'9 8.4
2014-Aug-22 17:29N 37°16' E 024°10'8 8.6
2014-Aug-22 16:33N 37°10' E 024°04'8 8.6
2014-Aug-22 15:33N 37°03' E 023°57'9 8.6
2014-Aug-22 14:33N 36°56' E 023°51'9 8.7
2014-Aug-22 13:33N 36°49' E 023°44'9 8.8
2014-Aug-22 12:33N 36°42' E 023°37'1110.7
2014-Aug-22 11:33N 36°33' E 023°30'1312.6
2014-Aug-22 10:33N 36°25' E 023°19'8 8.3
2014-Aug-22 09:33N 36°23' E 023°08'21 8.7
2014-Aug-22 07:08N 36°22' E 022°42'344 9.2
2014-Aug-20 17:33N 36°23' E 015°35'  
Track history (hours):
 
Tides and Currents Weather Stations Pressure Air Temp Water Temp Dewpoint Dewpoint Depression Visibility Wind Speed Wind Dir Waves Ship Positions

Besiktas Bosphorus

Last reported at 2014-Aug-30 17:21 UTC. Time now 2014-Aug-30 22:32 UTC.
Position N 44°37' E 037°40'.

Length 274 m; draft 9.3 m.

Type: Tanker. MMSI: 271000817.

Date/timePositionNaut miles runAvg speedWind from/ knotsBaromVisibWave heightAir tempDewpointWater temp
2014-Aug-30 17:21N 44°37' E 037°40'0 0.0
2014-Aug-30 16:31N 44°37' E 037°40'0 0.0
2014-Aug-30 15:34N 44°37' E 037°40'1 1.1
2014-Aug-30 14:33N 44°38' E 037°38'0 0.0
2014-Aug-30 13:33N 44°38' E 037°38'0 0.0
2014-Aug-30 12:29N 44°38' E 037°38'0 0.0
2014-Aug-30 11:32N 44°38' E 037°38'2 1.7
2014-Aug-30 10:33N 44°36' E 037°38'7 6.6
2014-Aug-30 09:34N 44°35' E 037°47'5 4.6
2014-Aug-30 08:31N 44°35' E 037°54'0 0.0
2014-Aug-30 07:31N 44°35' E 037°54'0 0.0
2014-Aug-30 06:31N 44°35' E 037°54'0 0.0
2014-Aug-30 05:28N 44°35' E 037°54'0 0.0
2014-Aug-30 04:31N 44°35' E 037°54'0 0.0
2014-Aug-30 03:31N 44°35' E 037°54'0 0.0
2014-Aug-30 02:31N 44°35' E 037°54'0 0.1
2014-Aug-30 01:31N 44°35' E 037°54'0 0.0
2014-Aug-30 00:31N 44°35' E 037°54'0 0.0
2014-Aug-29 23:31N 44°35' E 037°54'0 0.0
2014-Aug-29 22:28N 44°35' E 037°54'0 0.0
2014-Aug-29 21:31N 44°35' E 037°54'0 0.0
2014-Aug-29 20:32N 44°35' E 037°54'0 0.0
2014-Aug-29 19:32N 44°35' E 037°54'0 0.0
2014-Aug-29 18:32N 44°35' E 037°54'0 0.0
2014-Aug-29 17:32N 44°35' E 037°54'0 0.0
2014-Aug-29 16:32N 44°35' E 037°54'0 0.0
2014-Aug-29 15:32N 44°35' E 037°54'0 0.0
2014-Aug-29 14:34N 44°35' E 037°54'0 0.0
2014-Aug-29 13:31N 44°35' E 037°54'0 0.0
2014-Aug-29 12:31N 44°35' E 037°54'0 0.0
2014-Aug-29 11:33N 44°35' E 037°54'0 0.0
2014-Aug-29 10:33N 44°35' E 037°54'0 0.0
2014-Aug-29 09:33N 44°35' E 037°54'0 0.0
2014-Aug-29 08:34N 44°35' E 037°54'0 0.0
2014-Aug-29 07:32N 44°35' E 037°54'0 0.0
2014-Aug-29 06:32N 44°35' E 037°54'0 0.0
2014-Aug-29 05:32N 44°35' E 037°54'0 0.0
2014-Aug-29 04:32N 44°35' E 037°54'0 0.0
2014-Aug-29 03:32N 44°35' E 037°54'0 0.0
2014-Aug-29 02:32N 44°35' E 037°54'0 0.0
2014-Aug-29 01:32N 44°35' E 037°54'0 0.0
2014-Aug-29 00:31N 44°35' E 037°54'0 0.0
2014-Aug-28 23:31N 44°35' E 037°54'0 0.0
2014-Aug-28 22:31N 44°35' E 037°54'0 0.0
2014-Aug-28 21:33N 44°35' E 037°54'0 0.0
2014-Aug-28 20:31N 44°35' E 037°54'0 0.0
2014-Aug-28 19:31N 44°35' E 037°54'0 0.0
2014-Aug-28 18:31N 44°35' E 037°54'0 0.0
2014-Aug-28 17:29N 44°35' E 037°54'0 0.0
2014-Aug-28 16:33N 44°35' E 037°54'0 0.0
2014-Aug-28 15:33N 44°35' E 037°54'0 0.0
2014-Aug-28 14:33N 44°35' E 037°54'0 0.0
2014-Aug-28 13:31N 44°35' E 037°54'0 0.0
2014-Aug-28 12:31N 44°35' E 037°54'0 0.0
2014-Aug-28 11:33N 44°35' E 037°54'0 0.0
2014-Aug-28 10:33N 44°35' E 037°54'0 0.0
2014-Aug-28 09:32N 44°35' E 037°54'0 0.0
2014-Aug-28 08:32N 44°35' E 037°54'0 0.0
2014-Aug-28 07:32N 44°35' E 037°54'0 0.0
2014-Aug-28 06:32N 44°35' E 037°54'0 0.0
2014-Aug-28 05:32N 44°35' E 037°54'0 0.0
2014-Aug-28 04:33N 44°35' E 037°54'0 0.0
2014-Aug-28 03:33N 44°35' E 037°54'0 0.0
2014-Aug-28 02:30N 44°35' E 037°54'0 0.0
2014-Aug-28 01:33N 44°35' E 037°54'0 0.0
2014-Aug-28 00:32N 44°35' E 037°54'0 0.0
2014-Aug-27 23:31N 44°35' E 037°54'0 0.0
2014-Aug-27 22:33N 44°35' E 037°54'0 0.1
2014-Aug-27 21:33N 44°35' E 037°54'4 4.2
2014-Aug-27 20:33N 44°35' E 037°48'4 3.6
2014-Aug-27 19:33N 44°37' E 037°44'1 0.7
2014-Aug-27 18:33N 44°37' E 037°43'1010.2
2014-Aug-27 17:33N 44°28' E 037°35'8 8.0
2014-Aug-27 16:33N 44°23' E 037°27'8 8.1
2014-Aug-27 15:33N 44°20' E 037°17'8 8.1
2014-Aug-27 14:32N 44°16' E 037°06'9 9.5
2014-Aug-27 13:33N 44°12' E 036°55'1312.7
2014-Aug-27 12:33N 44°06' E 036°39'9 9.1
2014-Aug-27 11:33N 44°02' E 036°27'8 8.3
2014-Aug-27 10:33N 43°59' E 036°17'8 8.2
2014-Aug-27 09:33N 43°56' E 036°06'8 8.3
2014-Aug-27 08:33N 43°52' E 035°56'8 8.3
2014-Aug-27 07:33N 43°49' E 035°46'9 8.3
2014-Aug-27 06:30N 43°45' E 035°35'8 8.4
2014-Aug-27 05:33N 43°42' E 035°24'8 8.4
2014-Aug-27 04:33N 43°39' E 035°14'10 8.2
2014-Aug-27 03:24N 43°35' E 035°02'7 8.1
2014-Aug-27 02:33N 43°32' E 034°53'9 8.2
2014-Aug-27 01:26N 43°28' E 034°42'294 7.7
2014-Aug-25 11:22N 40°60' E 028°60'5 6.0
2014-Aug-25 10:33N 40°55' E 028°57'4 3.9
2014-Aug-25 09:30N 40°56' E 028°52'0 0.1
2014-Aug-25 08:31N 40°56' E 028°52'0 0.0
2014-Aug-25 07:33N 40°56' E 028°52'0 0.0
2014-Aug-25 06:29N 40°56' E 028°52'0 0.0
2014-Aug-25 05:19N 40°56' E 028°52'0 0.0
2014-Aug-25 04:31N 40°56' E 028°52'0 0.0
2014-Aug-25 03:32N 40°56' E 028°52'0 0.1
2014-Aug-25 02:33N 40°56' E 028°52'0 0.0
2014-Aug-25 00:27N 40°56' E 028°52'0 0.1
2014-Aug-24 23:29N 40°56' E 028°52'0 0.0
2014-Aug-24 22:26N 40°56' E 028°52'2 2.0
2014-Aug-24 21:26N 40°54' E 028°52'9 9.9
2014-Aug-24 20:31N 40°51' E 028°41'1312.1
2014-Aug-24 19:29N 40°49' E 028°24'2712.3
2014-Aug-24 17:19N 40°45' E 027°50'912.1
2014-Aug-24 16:33N 40°43' E 027°38'1212.0
2014-Aug-24 15:33N 40°38' E 027°23'2612.0
2014-Aug-24 13:25N 40°28' E 026°52'1511.2
2014-Aug-24 12:04N 40°19' E 026°36'2312.0
2014-Aug-24 10:07N 40°02' E 026°15'5 8.6
2014-Aug-24 09:33N 40°01' E 026°09'9 8.5
2014-Aug-24 08:33N 39°57' E 025°59'8 7.9
2014-Aug-24 07:33N 39°50' E 025°54'5 5.3
2014-Aug-24 06:33N 39°46' E 025°58'0 0.0
2014-Aug-24 05:29N 39°46' E 025°58'0 0.0
2014-Aug-24 04:32N 39°46' E 025°58'0 0.1
2014-Aug-24 03:32N 39°46' E 025°58'0 0.1
2014-Aug-24 02:32N 39°46' E 025°58'0 0.1
2014-Aug-24 01:32N 39°46' E 025°57'0 0.0
2014-Aug-24 00:23N 39°46' E 025°57'0 0.1
2014-Aug-23 23:23N 39°46' E 025°58'0 0.1
2014-Aug-23 22:30N 39°46' E 025°58'0 0.1
2014-Aug-23 21:32N 39°46' E 025°58'129 5.6
2014-Aug-22 22:33N 37°54' E 024°37'9 9.0
2014-Aug-22 21:33N 37°45' E 024°33'9 8.7
2014-Aug-22 20:33N 37°37' E 024°30'18 8.6
2014-Aug-22 18:32N 37°23' E 024°17'9 8.4
2014-Aug-22 17:29N 37°16' E 024°10'8 8.6
2014-Aug-22 16:33N 37°10' E 024°04'8 8.6
2014-Aug-22 15:33N 37°03' E 023°57'9 8.6
2014-Aug-22 14:33N 36°56' E 023°51'9 8.7
2014-Aug-22 13:33N 36°49' E 023°44'9 8.8
2014-Aug-22 12:33N 36°42' E 023°37'1110.7
2014-Aug-22 11:33N 36°33' E 023°30'1312.6
2014-Aug-22 10:33N 36°25' E 023°19'8 8.3
2014-Aug-22 09:33N 36°23' E 023°08'21 8.7
2014-Aug-22 07:08N 36°22' E 022°42'344 9.2
2014-Aug-20 17:33N 36°23' E 015°35'  

Dump ship's entire track history